Terminal Aerodrome Forecast
Issued by NWS Boston, MA

Home | Current Version | Previous Version | Text Only | Print | Product List | Glossary On
Versions: 1 2 3 4 5 6 7 8 9 10 11 12 13 14 15 16 17 18 19 20 21 22 23 24 25 26 27 28 29 30 31 32 33 34 35 36 37 38 39 40 41 42
000
FTUS41 KBOX 262335
TAFBDL
TAF
KBDL 262335Z 2700/2806 19014KT P6SM FEW070 BKN250
     FM270200 18009KT P6SM BKN100
     FM270500 18005KT P6SM BKN045
     FM270800 16005KT P6SM BKN030
     FM271000 17006KT 3SM BR BKN008
     FM271300 19009KT P6SM BKN015
     FM271500 19008KT P6SM BKN050
     FM271800 19012KT P6SM BKN050=

USA.gov is the U.S. government's official web portal to all federal, state and local government web resources and services.